Terminal Aerodrome Forecast
Issued by NWS

Home | Current Version | Previous Version | Text Only | Print | Product List | Glossary On
Versions: 1 2 3 4 5 6 7 8 9 10 11 12 13 14 15 16
000
FTUS44 KLZK 010500
TAFADF
TAF
KADF 010538Z 0106/0206 00000KT P6SM OVC050
      TEMPO 0106/0109 4SM BR OVC025
     FM010900 07003KT 3SM BR SCT010 OVC025
      TEMPO 0109/0113 1SM BR BKN005
     FM011500 08005KT P6SM SCT025 OVC035
     FM020000 08003KT P6SM SCT250=

USA.gov is the U.S. government's official web portal to all federal, state and local government web resources and services.